Time;durP1;ratioP1;P1;durP2;ratioP2;P2;SDS_P1;SDS_P2;PMS_P1;PMS_P2;Temp;Humidity;BMP_temperature;BMP_pressure;BME280_temperature;BME280_humidity;BME280_pressure;Samples;Min_cycle;Max_cycle;Signal;HPM_P1;HPM_P2
2023/10/19 00:02:31;;;;;;;10.02;8.05;;;13.20;86.40;;;;;;10948086;32;20045;-74
2023/10/19 00:08:41;;;;;;;7.10;5.62;;;13.30;86.30;;;;;;10949705;32;20419;-74
2023/10/19 00:14:43;;;;;;;11.57;9.98;;;13.30;86.30;;;;;;10949406;32;20015;-74
2023/10/19 00:20:53;;;;;;;10.45;8.50;;;13.30;86.40;;;;;;10949179;32;20364;-74
2023/10/19 00:26:55;;;;;;;11.20;7.65;;;13.20;86.50;;;;;;10949576;32;20077;-74
2023/10/19 00:33:02;;;;;;;12.15;8.82;;;13.30;86.30;;;;;;10949342;32;20045;-74
2023/10/19 00:39:14;;;;;;;8.10;6.45;;;13.40;86.40;;;;;;10948100;32;20050;-74
2023/10/19 00:45:16;;;;;;;11.10;8.35;;;13.40;86.40;;;;;;10948397;32;20010;-74
2023/10/19 00:57:56;;;;;;;13.45;8.75;;;13.40;86.20;;;;;;10946734;32;20092;-74
2023/10/19 01:03:59;;;;;;;9.90;7.30;;;13.30;86.40;;;;;;10944550;32;20027;-74
2023/10/19 01:10:08;;;;;;;10.95;8.40;;;13.30;86.30;;;;;;10946733;32;20037;-74
2023/10/19 01:16:20;;;;;;;10.43;8.02;;;13.30;86.30;;;;;;10945529;32;20057;-74
2023/10/19 01:22:26;;;;;;;12.37;9.13;;;13.40;86.30;;;;;;10946522;32;20022;-74
2023/10/19 01:28:50;;;;;;;9.65;6.53;;;13.50;86.20;;;;;;10947702;32;20325;-74
2023/10/19 01:34:53;;;;;;;12.37;8.65;;;13.50;86.20;;;;;;10947530;32;20033;-74
2023/10/19 01:40:59;;;;;;;10.38;7.65;;;13.50;86.20;;;;;;10947241;32;20041;-74
2023/10/19 01:47:01;;;;;;;9.88;8.02;;;13.50;86.40;;;;;;10946476;32;20337;-74
2023/10/19 01:53:12;;;;;;;9.30;7.65;;;13.50;86.50;;;;;;10944264;32;20040;-74
2023/10/19 01:59:16;;;;;;;9.23;7.60;;;13.50;86.40;;;;;;10945980;32;20471;-74
2023/10/19 02:05:19;;;;;;;9.88;8.88;;;13.60;86.40;;;;;;10945894;32;20298;-73
2023/10/19 02:11:24;;;;;;;10.63;7.78;;;13.50;86.40;;;;;;10944992;32;20023;-73
2023/10/19 02:17:26;;;;;;;8.07;6.50;;;13.50;86.50;;;;;;10943755;32;20053;-74
2023/10/19 02:23:29;;;;;;;10.48;7.70;;;13.50;86.40;;;;;;10945012;32;20045;-74
2023/10/19 02:29:31;;;;;;;7.35;5.75;;;13.50;86.40;;;;;;10944352;32;20044;-74
2023/10/19 02:35:37;;;;;;;5.28;3.50;;;13.50;86.30;;;;;;10944088;32;20042;-74
2023/10/19 02:41:41;;;;;;;9.57;7.07;;;13.50;86.30;;;;;;10956557;32;20046;-74
2023/10/19 02:47:44;;;;;;;11.68;9.65;;;13.40;86.10;;;;;;10944324;32;20011;-74
2023/10/19 02:53:47;;;;;;;7.32;5.90;;;13.30;86.20;;;;;;10942515;32;20034;-73
2023/10/19 02:59:50;;;;;;;7.15;5.53;;;13.30;86.20;;;;;;10943779;32;20019;-73
2023/10/19 03:05:52;;;;;;;9.13;6.28;;;13.40;86.20;;;;;;10940494;32;20018;-73
2023/10/19 03:11:59;;;;;;;7.45;6.40;;;13.40;86.10;;;;;;10942739;32;20120;-73
2023/10/19 03:18:04;;;;;;;7.93;6.32;;;13.50;86.10;;;;;;10943170;32;20011;-73
2023/10/19 03:24:12;;;;;;;7.20;5.05;;;13.50;86.20;;;;;;10942961;32;20023;-73
2023/10/19 03:30:16;;;;;;;8.73;6.60;;;13.50;86.10;;;;;;10939316;32;20028;-73
2023/10/19 03:36:18;;;;;;;7.03;5.53;;;13.50;86.00;;;;;;10943148;32;20050;-73
2023/10/19 03:42:21;;;;;;;8.30;7.00;;;13.60;86.10;;;;;;10942553;32;20431;-74
2023/10/19 03:48:26;;;;;;;9.38;7.50;;;13.70;86.00;;;;;;10941774;32;20093;-73
2023/10/19 03:54:29;;;;;;;7.53;6.05;;;13.60;86.00;;;;;;10941725;32;20015;-73
2023/10/19 04:00:33;;;;;;;7.22;5.75;;;13.70;86.00;;;;;;10941680;32;20046;-73
2023/10/19 04:06:37;;;;;;;8.88;6.50;;;13.70;86.00;;;;;;10941448;32;20045;-73
2023/10/19 04:12:43;;;;;;;6.57;5.00;;;13.70;86.00;;;;;;10942396;32;20015;-72
2023/10/19 04:18:46;;;;;;;8.05;6.87;;;13.70;86.10;;;;;;10941013;32;20019;-71
2023/10/19 04:24:49;;;;;;;10.35;7.55;;;13.70;86.00;;;;;;10942205;32;20279;-70
2023/10/19 04:30:51;;;;;;;6.55;5.22;;;13.70;86.00;;;;;;10940851;32;20023;-71
2023/10/19 04:36:53;;;;;;;7.28;5.78;;;13.70;86.20;;;;;;10941994;32;20041;-70
2023/10/19 04:42:55;;;;;;;8.30;6.82;;;13.70;86.30;;;;;;10941837;32;20415;-70
2023/10/19 04:48:58;;;;;;;7.65;5.97;;;13.70;86.20;;;;;;10945729;32;20022;-70
2023/10/19 04:55:01;;;;;;;6.82;5.05;;;13.70;86.10;;;;;;10947407;32;20046;-70
2023/10/19 05:01:05;;;;;;;9.45;7.78;;;13.70;86.00;;;;;;10959346;32;20045;-70
2023/10/19 05:07:11;;;;;;;8.70;6.95;;;13.80;86.10;;;;;;10947052;32;20023;-71
2023/10/19 05:13:13;;;;;;;8.48;6.82;;;13.70;86.20;;;;;;10947385;32;20428;-73
2023/10/19 05:19:38;;;;;;;7.90;6.12;;;13.70;86.30;;;;;;10947742;32;20332;-72
2023/10/19 05:25:41;;;;;;;9.02;6.85;;;13.70;86.30;;;;;;10946992;32;20015;-72
2023/10/19 05:31:43;;;;;;;6.95;5.10;;;13.70;86.20;;;;;;10946542;32;20011;-72
2023/10/19 05:37:45;;;;;;;8.75;6.82;;;13.70;86.00;;;;;;10945944;32;20069;-72
2023/10/19 05:43:49;;;;;;;9.52;5.50;;;13.70;86.00;;;;;;10944238;32;20340;-72
2023/10/19 05:49:51;;;;;;;8.55;6.25;;;13.70;86.10;;;;;;10945714;32;20423;-72
2023/10/19 05:55:53;;;;;;;7.50;5.55;;;13.70;86.00;;;;;;10976317;32;20018;-72
2023/10/19 06:01:55;;;;;;;8.43;5.62;;;13.70;85.90;;;;;;10982617;32;20050;-72
2023/10/19 06:07:59;;;;;;;6.80;4.82;;;13.70;85.90;;;;;;10983646;32;20039;-72
2023/10/19 06:14:02;;;;;;;5.45;4.62;;;13.80;85.90;;;;;;10981981;32;20332;-72
2023/10/19 06:20:07;;;;;;;7.20;4.95;;;13.80;85.80;;;;;;10965721;32;20035;-73
2023/10/19 06:26:11;;;;;;;6.18;4.07;;;13.80;85.80;;;;;;10952191;32;20053;-72
2023/10/19 06:32:14;;;;;;;6.47;4.32;;;13.80;85.80;;;;;;10978753;32;20340;-72
2023/10/19 06:38:16;;;;;;;8.85;5.90;;;13.80;85.70;;;;;;10981268;32;20019;-73
2023/10/19 06:44:22;;;;;;;6.05;4.50;;;13.90;85.70;;;;;;10981011;32;20023;-73
2023/10/19 06:50:25;;;;;;;6.53;5.65;;;13.90;85.80;;;;;;10724299;27;7232687;-73
2023/10/19 06:56:32;;;;;;;8.02;5.93;;;13.90;85.70;;;;;;10944412;32;20041;-73
2023/10/19 07:02:34;;;;;;;6.70;4.20;;;14.00;85.70;;;;;;10955032;32;20014;-73
2023/10/19 07:08:37;;;;;;;6.72;4.50;;;14.00;85.80;;;;;;10942391;32;20023;-73
2023/10/19 07:14:40;;;;;;;6.75;4.68;;;14.00;85.80;;;;;;10942726;32;20046;-73
2023/10/19 07:20:43;;;;;;;5.25;3.50;;;14.00;85.80;;;;;;10955289;32;20435;-74
2023/10/19 07:26:53;;;;;;;5.30;4.03;;;14.10;86.00;;;;;;10950767;32;20045;-74
2023/10/19 07:32:58;;;;;;;7.22;3.35;;;14.10;86.00;;;;;;10941242;32;20070;-73
2023/10/19 07:39:00;;;;;;;5.30;4.53;;;14.10;86.20;;;;;;10942019;32;20007;-73
2023/10/19 07:45:04;;;;;;;5.35;4.25;;;14.10;86.40;;;;;;10941724;32;20101;-74
2023/10/19 07:51:11;;;;;;;5.50;3.15;;;14.20;86.40;;;;;;10940301;32;20078;-74
2023/10/19 07:57:13;;;;;;;3.12;2.45;;;14.20;86.40;;;;;;10953842;32;20050;-74
2023/10/19 08:03:19;;;;;;;4.47;3.37;;;14.40;86.20;;;;;;10942135;32;20440;-74
2023/10/19 08:09:35;;;;;;;5.12;3.35;;;14.50;86.00;;;;;;10939148;32;20035;-74
2023/10/19 08:15:37;;;;;;;3.03;2.47;;;14.50;86.00;;;;;;10940336;32;20016;-73
2023/10/19 08:21:39;;;;;;;3.97;2.83;;;14.60;86.20;;;;;;10943965;32;20045;-75
2023/10/19 08:27:45;;;;;;;3.80;3.10;;;14.60;86.00;;;;;;10947302;32;20019;-74
2023/10/19 08:33:47;;;;;;;5.85;3.17;;;14.70;86.00;;;;;;10950105;32;20046;-73
2023/10/19 08:39:51;;;;;;;3.80;2.67;;;14.80;86.00;;;;;;10948635;32;20019;-74
2023/10/19 08:45:55;;;;;;;4.45;3.00;;;14.90;85.90;;;;;;10947876;32;20015;-73
2023/10/19 08:52:00;;;;;;;4.37;3.42;;;15.00;86.00;;;;;;10947952;32;20019;-74
2023/10/19 08:58:05;;;;;;;3.17;2.53;;;15.00;85.90;;;;;;10946762;32;20022;-71
2023/10/19 09:04:07;;;;;;;4.40;3.22;;;15.10;86.00;;;;;;10959452;32;20015;-73
2023/10/19 09:10:36;;;;;;;2.30;2.10;;;15.20;86.10;;;;;;10947603;32;20306;-73
2023/10/19 09:16:38;;;;;;;2.72;2.12;;;15.30;86.20;;;;;;10945926;32;20046;-73
2023/10/19 09:22:44;;;;;;;4.68;2.60;;;15.30;86.10;;;;;;10946156;32;20417;-73
2023/10/19 09:28:50;;;;;;;2.67;2.45;;;15.40;86.40;;;;;;10958217;32;20475;-73
2023/10/19 09:34:53;;;;;;;3.37;2.30;;;15.50;86.50;;;;;;10945510;32;20026;-73
2023/10/19 09:40:57;;;;;;;2.47;2.08;;;15.60;86.40;;;;;;10942492;32;20015;-73
2023/10/19 09:47:03;;;;;;;2.25;2.05;;;15.50;86.30;;;;;;10943489;32;20027;-74
2023/10/19 09:53:07;;;;;;;1.90;1.73;;;15.60;86.30;;;;;;10945882;32;20030;-73
2023/10/19 09:59:35;;;;;;;2.60;2.10;;;15.60;86.20;;;;;;10955753;32;20015;-73
2023/10/19 10:05:43;;;;;;;3.97;3.03;;;15.70;86.20;;;;;;10943273;32;20085;-74
2023/10/19 10:11:48;;;;;;;4.07;2.70;;;15.70;86.10;;;;;;10944780;32;20046;-73
2023/10/19 10:17:54;;;;;;;6.60;3.62;;;15.70;86.10;;;;;;10944523;32;20042;-73
2023/10/19 10:24:02;;;;;;;2.70;2.50;;;15.80;86.10;;;;;;10944894;32;20436;-73
2023/10/19 10:30:06;;;;;;;5.17;3.37;;;15.90;86.00;;;;;;10943924;32;20414;-73
2023/10/19 10:36:10;;;;;;;3.75;3.00;;;15.90;85.90;;;;;;10944643;32;20385;-73
2023/10/19 10:42:12;;;;;;;2.78;2.35;;;16.00;85.90;;;;;;10944295;32;20015;-72
2023/10/19 10:48:15;;;;;;;2.97;2.42;;;16.00;85.80;;;;;;10941153;32;20031;-73
2023/10/19 10:54:21;;;;;;;4.55;3.37;;;16.00;85.80;;;;;;10943289;32;20041;-73
2023/10/19 11:00:25;;;;;;;5.12;3.50;;;16.00;85.90;;;;;;10942924;32;20344;-73
2023/10/19 11:06:28;;;;;;;3.50;2.42;;;16.20;85.80;;;;;;10913181;32;20038;-73
2023/10/19 11:12:30;;;;;;;4.35;2.97;;;16.30;85.80;;;;;;10904788;32;20042;-72
2023/10/19 11:18:39;;;;;;;4.57;3.37;;;16.40;85.50;;;;;;10906183;32;20012;-74
2023/10/19 11:24:41;;;;;;;4.70;3.35;;;16.40;85.60;;;;;;10904419;32;20042;-71
2023/10/19 11:30:44;;;;;;;3.87;2.42;;;16.30;85.70;;;;;;10904296;32;20037;-73
2023/10/19 11:36:46;;;;;;;5.75;3.22;;;16.30;85.70;;;;;;10904329;32;20019;-72
2023/10/19 11:42:52;;;;;;;4.45;3.58;;;16.40;85.70;;;;;;10905204;32;20034;-72
2023/10/19 11:48:54;;;;;;;5.62;4.07;;;16.60;85.70;;;;;;10886072;32;20031;-71
2023/10/19 11:54:56;;;;;;;5.45;3.25;;;16.70;85.60;;;;;;10907958;32;20434;-71
2023/10/19 12:00:59;;;;;;;5.07;3.37;;;16.90;85.40;;;;;;10914858;32;20447;-71
2023/10/19 12:07:01;;;;;;;6.80;4.10;;;17.10;85.20;;;;;;10916414;32;20390;-70
2023/10/19 12:13:11;;;;;;;7.40;4.22;;;17.10;85.10;;;;;;10916971;32;20027;-72
2023/10/19 12:19:18;;;;;;;7.25;4.60;;;17.10;85.00;;;;;;10916185;32;20015;-72
2023/10/19 12:25:28;;;;;;;11.52;6.70;;;17.20;85.00;;;;;;10910237;32;20440;-71
2023/10/19 12:31:30;;;;;;;8.13;5.30;;;17.20;85.00;;;;;;10915734;32;20011;-72
2023/10/19 12:37:46;;;;;;;10.30;4.68;;;17.30;85.00;;;;;;10915502;32;20027;-72
2023/10/19 12:43:51;;;;;;;10.82;6.35;;;17.10;85.10;;;;;;10915373;32;20038;-72
2023/10/19 12:49:54;;;;;;;8.85;5.68;;;17.00;85.20;;;;;;10915300;32;20046;-70
2023/10/19 12:55:56;;;;;;;16.92;8.15;;;17.00;85.40;;;;;;10913730;32;20046;-71
2023/10/19 13:01:58;;;;;;;8.98;7.15;;;17.00;85.40;;;;;;10914255;32;20027;-70
2023/10/19 13:08:01;;;;;;;8.60;6.28;;;17.00;85.40;;;;;;10912432;32;20038;-71
2023/10/19 13:14:06;;;;;;;8.68;6.00;;;17.00;85.50;;;;;;10927409;32;20344;-73
2023/10/19 13:20:18;;;;;;;9.15;6.18;;;16.90;85.60;;;;;;10949819;32;20022;-73
2023/10/19 13:26:23;;;;;;;9.27;6.03;;;16.90;85.60;;;;;;10951379;32;20031;-73
2023/10/19 13:32:29;;;;;;;9.50;5.70;;;16.90;85.50;;;;;;10944971;32;20023;-73
2023/10/19 13:38:33;;;;;;;9.20;5.30;;;16.80;85.80;;;;;;10946081;32;20019;-73
2023/10/19 13:44:35;;;;;;;8.95;6.85;;;16.80;85.70;;;;;;10946818;32;20008;-73
2023/10/19 13:50:48;;;;;;;9.57;6.03;;;17.00;85.70;;;;;;10945440;32;20015;-73
2023/10/19 13:56:50;;;;;;;7.85;4.82;;;17.00;85.70;;;;;;10946626;32;20038;-72
2023/10/19 14:02:53;;;;;;;12.98;5.68;;;17.00;85.60;;;;;;10944897;32;20018;-72
2023/10/19 14:08:56;;;;;;;9.23;5.10;;;17.00;85.60;;;;;;10945125;32;20019;-71
2023/10/19 14:15:02;;;;;;;7.68;6.10;;;17.00;85.60;;;;;;10944288;32;20046;-71
2023/10/19 14:21:13;;;;;;;6.93;5.53;;;16.90;85.70;;;;;;10943228;32;20011;-72
2023/10/19 14:27:16;;;;;;;14.27;7.60;;;16.90;85.70;;;;;;10944428;32;20293;-72
2023/10/19 14:33:19;;;;;;;7.45;5.62;;;16.90;85.80;;;;;;10945336;32;20012;-73
2023/10/19 14:54:34;;;;;;;8.15;5.30;;;16.90;85.80;;;;;;10791744;32;7640475;-69
2023/10/19 15:00:49;;;;;;;9.48;6.53;;;17.00;85.40;;;;;;11011370;32;20030;-69
2023/10/19 15:06:51;;;;;;;8.10;6.37;;;16.90;85.70;;;;;;11012219;32;20018;-70
2023/10/19 15:12:56;;;;;;;9.60;6.07;;;16.90;85.90;;;;;;11011860;32;20015;-70
2023/10/19 15:18:59;;;;;;;9.00;6.78;;;16.90;85.80;;;;;;11012020;32;20010;-70
2023/10/19 15:25:01;;;;;;;8.77;5.50;;;16.90;86.00;;;;;;11011474;32;20049;-70
2023/10/19 15:31:06;;;;;;;10.07;7.53;;;16.90;85.90;;;;;;11012310;32;20015;-70
2023/10/19 15:37:08;;;;;;;9.88;7.30;;;16.90;85.90;;;;;;11012657;32;20030;-70
2023/10/19 15:43:10;;;;;;;12.00;8.13;;;16.90;85.90;;;;;;11010435;32;20022;-70
2023/10/19 15:49:14;;;;;;;10.27;8.45;;;16.90;85.90;;;;;;11011470;32;20387;-70
2023/10/19 15:55:16;;;;;;;15.10;8.77;;;16.90;86.00;;;;;;10987384;32;20015;-70
2023/10/19 16:01:19;;;;;;;14.60;10.02;;;16.90;86.10;;;;;;10984607;32;20392;-70
2023/10/19 16:07:21;;;;;;;11.60;7.72;;;16.80;86.10;;;;;;10985046;32;20015;-70
2023/10/19 16:13:24;;;;;;;10.57;7.72;;;16.80;86.10;;;;;;10985096;32;20198;-71
2023/10/19 16:19:45;;;;;;;10.70;8.10;;;16.80;86.00;;;;;;10983656;32;20023;-71
2023/10/19 16:26:09;;;;;;;14.77;8.02;;;16.90;85.90;;;;;;10985256;32;20327;-70
2023/10/19 16:32:11;;;;;;;8.80;7.15;;;16.90;85.90;;;;;;10909385;32;20015;-71
2023/10/19 16:38:15;;;;;;;12.85;8.15;;;16.80;85.90;;;;;;10908180;32;20023;-71
2023/10/19 16:44:17;;;;;;;13.05;7.18;;;16.80;86.00;;;;;;10907787;32;20020;-71
2023/10/19 16:50:20;;;;;;;7.72;6.10;;;16.90;85.90;;;;;;10907607;32;20019;-71
2023/10/19 16:56:22;;;;;;;10.30;8.43;;;16.90;85.90;;;;;;10910285;32;20061;-71
2023/10/19 17:03:14;;;;;;;12.40;7.87;;;16.90;85.90;;;;;;10944802;32;20022;-71
2023/10/19 17:09:22;;;;;;;14.23;9.20;;;17.00;85.90;;;;;;10945913;32;20012;-71
2023/10/19 17:15:24;;;;;;;11.77;8.43;;;16.90;85.80;;;;;;10945629;32;20015;-71
2023/10/19 17:21:27;;;;;;;14.50;9.38;;;16.90;85.90;;;;;;10944800;32;20115;-71
2023/10/19 17:27:29;;;;;;;12.65;10.55;;;16.90;85.80;;;;;;10945263;32;20053;-71
2023/10/19 17:33:31;;;;;;;13.00;9.57;;;17.00;85.80;;;;;;10944395;32;20022;-71
2023/10/19 17:39:33;;;;;;;13.27;9.38;;;16.90;85.90;;;;;;10943991;32;20058;-71
2023/10/19 17:45:36;;;;;;;12.30;9.63;;;17.00;85.90;;;;;;10943852;32;20434;-71
2023/10/19 17:51:39;;;;;;;13.90;9.85;;;17.00;85.90;;;;;;10943002;32;20045;-71
2023/10/19 17:58:09;;;;;;;11.55;8.07;;;17.00;85.80;;;;;;10941710;32;20039;-72
2023/10/19 18:04:12;;;;;;;12.93;11.18;;;17.00;85.70;;;;;;10942053;32;20077;-72
2023/10/19 18:10:15;;;;;;;12.25;9.43;;;17.00;85.70;;;;;;10942479;32;20023;-72
2023/10/19 18:16:18;;;;;;;13.18;10.40;;;17.00;85.70;;;;;;10942864;32;20046;-72
2023/10/19 18:22:20;;;;;;;11.05;8.98;;;17.10;85.60;;;;;;10942877;32;20031;-72
2023/10/19 18:28:22;;;;;;;12.80;10.50;;;17.10;85.60;;;;;;10941468;32;20053;-72
2023/10/19 18:34:25;;;;;;;12.40;9.25;;;17.10;85.60;;;;;;10942587;32;20049;-71
2023/10/19 18:40:29;;;;;;;10.30;8.07;;;17.10;85.60;;;;;;10941692;32;20022;-71
2023/10/19 18:46:31;;;;;;;12.48;9.40;;;17.10;85.50;;;;;;10942094;32;20065;-71
2023/10/19 18:52:34;;;;;;;11.75;9.75;;;17.10;85.50;;;;;;10940945;32;20035;-71
2023/10/19 18:58:36;;;;;;;16.30;8.02;;;17.10;85.50;;;;;;10933412;32;20314;-71
2023/10/19 19:04:39;;;;;;;9.40;7.50;;;17.10;85.60;;;;;;10941759;32;20023;-71
2023/10/19 19:10:41;;;;;;;11.20;9.02;;;17.00;85.50;;;;;;10941056;32;20050;-71
2023/10/19 19:16:44;;;;;;;16.33;11.07;;;17.00;85.60;;;;;;10939443;32;20394;-71
2023/10/19 19:22:46;;;;;;;12.15;10.23;;;17.00;85.70;;;;;;10941032;32;20035;-71
2023/10/19 19:28:48;;;;;;;12.98;8.25;;;17.00;85.60;;;;;;10941602;32;20022;-71
2023/10/19 19:34:50;;;;;;;15.27;9.50;;;17.00;85.70;;;;;;10948342;32;20023;-71
2023/10/19 19:40:53;;;;;;;13.93;9.63;;;17.00;85.60;;;;;;10943688;32;20336;-71
2023/10/19 19:46:55;;;;;;;14.65;11.75;;;17.00;85.70;;;;;;10948290;32;20023;-71
2023/10/19 19:52:57;;;;;;;13.77;10.52;;;16.90;85.70;;;;;;10947133;32;20053;-71
2023/10/19 19:58:59;;;;;;;13.62;10.77;;;17.00;85.70;;;;;;10947649;32;20050;-71
2023/10/19 20:05:04;;;;;;;14.45;11.40;;;17.00;85.70;;;;;;10946884;32;20015;-71
2023/10/19 20:11:07;;;;;;;11.70;8.85;;;17.00;85.60;;;;;;10945767;32;20037;-71
2023/10/19 20:17:11;;;;;;;12.63;10.85;;;17.00;85.60;;;;;;10946015;32;20015;-71
2023/10/19 20:23:13;;;;;;;16.58;13.73;;;17.00;85.60;;;;;;10946107;32;20399;-70
2023/10/19 20:29:15;;;;;;;17.50;11.15;;;16.90;85.70;;;;;;10942386;32;20023;-71
2023/10/19 20:35:20;;;;;;;15.25;11.55;;;16.90;85.80;;;;;;10946566;32;20023;-71
2023/10/19 20:41:22;;;;;;;11.52;9.77;;;16.90;85.80;;;;;;10945035;32;20023;-71
2023/10/19 20:47:24;;;;;;;14.50;9.40;;;16.90;85.70;;;;;;10945236;32;20027;-70
2023/10/19 20:53:27;;;;;;;13.73;9.98;;;16.90;85.70;;;;;;10944990;32;20415;-70
2023/10/19 20:59:29;;;;;;;13.68;10.15;;;16.90;85.70;;;;;;10945663;32;20018;-70
2023/10/19 21:05:32;;;;;;;12.20;8.55;;;17.00;85.60;;;;;;10945513;32;20089;-70
2023/10/19 21:11:34;;;;;;;11.60;8.60;;;17.00;85.60;;;;;;10944938;32;20022;-71
2023/10/19 21:17:37;;;;;;;27.42;22.60;;;17.00;85.60;;;;;;10945258;32;20019;-71
2023/10/19 21:23:39;;;;;;;19.08;14.95;;;17.00;85.60;;;;;;10944216;32;20065;-70
2023/10/19 21:29:41;;;;;;;14.95;11.57;;;17.00;85.60;;;;;;10944833;32;20046;-70
2023/10/19 21:35:44;;;;;;;13.45;10.65;;;17.00;85.50;;;;;;10942980;32;20062;-70
2023/10/19 21:41:49;;;;;;;29.92;17.48;;;17.10;85.60;;;;;;10942843;32;20050;-70
2023/10/19 21:47:51;;;;;;;29.77;21.37;;;17.10;85.60;;;;;;10943980;32;20019;-70
2023/10/19 21:53:53;;;;;;;19.83;15.90;;;17.10;85.60;;;;;;10942836;32;20379;-70
2023/10/19 21:59:56;;;;;;;13.68;11.63;;;17.00;85.60;;;;;;10943776;32;20018;-70
2023/10/19 22:06:06;;;;;;;13.75;9.57;;;17.10;85.70;;;;;;10943590;32;20015;-70
2023/10/19 22:12:13;;;;;;;16.08;11.23;;;17.10;85.70;;;;;;10943062;32;20046;-70
2023/10/19 22:18:16;;;;;;;14.98;12.63;;;17.00;85.70;;;;;;10942735;32;20022;-70
2023/10/19 22:24:18;;;;;;;12.45;10.68;;;17.00;85.80;;;;;;10942659;32;20031;-70
2023/10/19 22:30:24;;;;;;;12.68;9.88;;;17.00;85.80;;;;;;10942658;32;20023;-71
2023/10/19 22:36:26;;;;;;;13.05;9.25;;;16.90;85.90;;;;;;10940286;32;20325;-70
2023/10/19 22:42:28;;;;;;;11.02;8.15;;;16.90;85.90;;;;;;10941807;32;20049;-70
2023/10/19 22:48:30;;;;;;;13.45;10.43;;;17.00;85.90;;;;;;10942831;32;20023;-70
2023/10/19 22:54:34;;;;;;;12.60;11.05;;;17.00;85.90;;;;;;10904721;27;20039;-70
2023/10/19 23:00:36;;;;;;;15.25;9.77;;;17.00;86.00;;;;;;10904011;32;20027;-70
2023/10/19 23:06:38;;;;;;;12.93;10.63;;;17.00;86.00;;;;;;10912454;32;20015;-70
2023/10/19 23:12:41;;;;;;;13.70;9.68;;;17.00;86.00;;;;;;10912205;32;20423;-70
2023/10/19 23:18:46;;;;;;;16.80;11.85;;;17.00;86.00;;;;;;10912041;32;20333;-70
2023/10/19 23:24:55;;;;;;;12.55;9.43;;;17.00;86.00;;;;;;10911176;32;20050;-70
2023/10/19 23:31:04;;;;;;;14.02;11.15;;;17.00;85.90;;;;;;10911608;32;20042;-70
2023/10/19 23:37:10;;;;;;;14.30;10.82;;;17.00;85.90;;;;;;10910262;32;20023;-70
2023/10/19 23:43:13;;;;;;;12.00;10.07;;;17.00;85.90;;;;;;10910622;32;20046;-70
2023/10/19 23:49:15;;;;;;;12.68;10.32;;;17.00;85.90;;;;;;10911338;32;20356;-70
2023/10/19 23:55:18;;;;;;;13.90;10.48;;;17.00;86.10;;;;;;10909620;32;20011;-70
